sensor_id;sensor_type;location;lat;lon;timestamp;P1;durP1;ratioP1;P2;durP2;ratioP2
76409;SDS011;65238;42.662;23.280;2023-05-02T00:00:46;7.60;;;3.65;;
76409;SDS011;65238;42.662;23.280;2023-05-02T00:03:11;5.00;;;4.38;;
76409;SDS011;65238;42.662;23.280;2023-05-02T00:05:37;7.65;;;3.75;;
76409;SDS011;65238;42.662;23.280;2023-05-02T00:08:02;4.82;;;4.03;;
76409;SDS011;65238;42.662;23.280;2023-05-02T00:10:28;5.90;;;4.22;;
76409;SDS011;65238;42.662;23.280;2023-05-02T00:12:53;5.50;;;4.82;;
76409;SDS011;65238;42.662;23.280;2023-05-02T00:15:18;7.93;;;4.55;;
76409;SDS011;65238;42.662;23.280;2023-05-02T00:17:44;5.93;;;4.65;;
76409;SDS011;65238;42.662;23.280;2023-05-02T00:20:09;6.32;;;4.22;;
76409;SDS011;65238;42.662;23.280;2023-05-02T00:22:35;5.90;;;4.00;;
76409;SDS011;65238;42.662;23.280;2023-05-02T00:25:01;5.07;;;3.95;;
76409;SDS011;65238;42.662;23.280;2023-05-02T00:27:28;4.97;;;4.20;;
76409;SDS011;65238;42.662;23.280;2023-05-02T00:29:54;4.50;;;4.00;;
76409;SDS011;65238;42.662;23.280;2023-05-02T00:32:19;8.25;;;4.13;;
76409;SDS011;65238;42.662;23.280;2023-05-02T00:34:45;5.53;;;3.95;;
76409;SDS011;65238;42.662;23.280;2023-05-02T00:37:10;5.25;;;3.80;;
76409;SDS011;65238;42.662;23.280;2023-05-02T00:39:35;4.93;;;4.30;;
76409;SDS011;65238;42.662;23.280;2023-05-02T00:42:01;9.00;;;4.22;;
76409;SDS011;65238;42.662;23.280;2023-05-02T00:44:26;6.50;;;4.43;;
76409;SDS011;65238;42.662;23.280;2023-05-02T00:46:53;5.88;;;4.50;;
76409;SDS011;65238;42.662;23.280;2023-05-02T00:49:18;5.47;;;3.83;;
76409;SDS011;65238;42.662;23.280;2023-05-02T00:51:44;5.30;;;4.28;;
76409;SDS011;65238;42.662;23.280;2023-05-02T00:54:10;7.53;;;4.65;;
76409;SDS011;65238;42.662;23.280;2023-05-02T00:56:37;5.68;;;4.32;;
76409;SDS011;65238;42.662;23.280;2023-05-02T00:59:02;7.15;;;4.13;;
76409;SDS011;65238;42.662;23.280;2023-05-02T01:01:34;5.40;;;4.20;;
76409;SDS011;65238;42.662;23.280;2023-05-02T01:09:33;5.32;;;4.10;;
76409;SDS011;65238;42.662;23.280;2023-05-02T01:12:15;5.50;;;4.72;;
76409;SDS011;65238;42.662;23.280;2023-05-02T01:14:46;5.80;;;3.60;;
76409;SDS011;65238;42.662;23.280;2023-05-02T01:17:15;5.47;;;4.35;;
76409;SDS011;65238;42.662;23.280;2023-05-02T01:19:42;5.85;;;4.30;;
76409;SDS011;65238;42.662;23.280;2023-05-02T01:22:09;6.65;;;4.63;;
76409;SDS011;65238;42.662;23.280;2023-05-02T01:27:50;6.82;;;3.90;;
76409;SDS011;65238;42.662;23.280;2023-05-02T01:32:46;4.78;;;3.90;;
76409;SDS011;65238;42.662;23.280;2023-05-02T01:35:16;5.25;;;4.75;;
76409;SDS011;65238;42.662;23.280;2023-05-02T01:37:43;4.68;;;4.18;;
76409;SDS011;65238;42.662;23.280;2023-05-02T01:40:09;7.25;;;4.30;;
76409;SDS011;65238;42.662;23.280;2023-05-02T01:42:36;4.30;;;3.90;;
76409;SDS011;65238;42.662;23.280;2023-05-02T01:45:03;6.38;;;4.63;;
76409;SDS011;65238;42.662;23.280;2023-05-02T01:47:29;6.22;;;4.78;;
76409;SDS011;65238;42.662;23.280;2023-05-02T01:49:58;6.80;;;4.60;;
76409;SDS011;65238;42.662;23.280;2023-05-02T01:52:24;5.75;;;4.45;;
76409;SDS011;65238;42.662;23.280;2023-05-02T01:54:51;7.93;;;5.00;;
76409;SDS011;65238;42.662;23.280;2023-05-02T01:57:17;6.75;;;4.50;;
76409;SDS011;65238;42.662;23.280;2023-05-02T01:59:43;7.88;;;4.57;;
76409;SDS011;65238;42.662;23.280;2023-05-02T02:02:09;9.30;;;4.80;;
76409;SDS011;65238;42.662;23.280;2023-05-02T02:04:36;5.68;;;4.78;;
76409;SDS011;65238;42.662;23.280;2023-05-02T02:07:05;7.00;;;4.93;;
76409;SDS011;65238;42.662;23.280;2023-05-02T02:09:31;6.03;;;4.82;;
76409;SDS011;65238;42.662;23.280;2023-05-02T02:14:49;8.32;;;4.82;;
76409;SDS011;65238;42.662;23.280;2023-05-02T02:17:21;8.48;;;4.50;;
76409;SDS011;65238;42.662;23.280;2023-05-02T02:19:50;5.97;;;5.03;;
76409;SDS011;65238;42.662;23.280;2023-05-02T02:22:18;8.80;;;5.15;;
76409;SDS011;65238;42.662;23.280;2023-05-02T02:24:44;5.78;;;4.32;;
76409;SDS011;65238;42.662;23.280;2023-05-02T02:27:10;6.70;;;5.28;;
76409;SDS011;65238;42.662;23.280;2023-05-02T02:29:35;6.32;;;4.97;;
76409;SDS011;65238;42.662;23.280;2023-05-02T02:32:01;6.18;;;4.80;;
76409;SDS011;65238;42.662;23.280;2023-05-02T02:34:26;7.28;;;4.90;;
76409;SDS011;65238;42.662;23.280;2023-05-02T02:36:56;7.07;;;5.15;;
76409;SDS011;65238;42.662;23.280;2023-05-02T02:44:55;7.60;;;4.97;;
76409;SDS011;65238;42.662;23.280;2023-05-02T02:50:41;8.80;;;5.15;;
76409;SDS011;65238;42.662;23.280;2023-05-02T02:53:16;5.55;;;4.72;;
76409;SDS011;65238;42.662;23.280;2023-05-02T02:55:54;5.90;;;4.55;;
76409;SDS011;65238;42.662;23.280;2023-05-02T02:58:29;5.28;;;4.75;;
76409;SDS011;65238;42.662;23.280;2023-05-02T03:01:01;8.02;;;5.20;;
76409;SDS011;65238;42.662;23.280;2023-05-02T03:03:27;8.10;;;4.60;;
76409;SDS011;65238;42.662;23.280;2023-05-02T03:05:54;8.35;;;5.28;;
76409;SDS011;65238;42.662;23.280;2023-05-02T03:08:21;6.28;;;5.10;;
76409;SDS011;65238;42.662;23.280;2023-05-02T03:10:46;6.78;;;5.05;;
76409;SDS011;65238;42.662;23.280;2023-05-02T03:13:12;6.65;;;4.40;;
76409;SDS011;65238;42.662;23.280;2023-05-02T03:18:09;9.60;;;4.70;;
76409;SDS011;65238;42.662;23.280;2023-05-02T03:20:34;6.38;;;4.88;;
76409;SDS011;65238;42.662;23.280;2023-05-02T03:22:59;5.88;;;5.28;;
76409;SDS011;65238;42.662;23.280;2023-05-02T03:25:25;7.40;;;5.10;;
76409;SDS011;65238;42.662;23.280;2023-05-02T03:27:50;9.68;;;5.30;;
76409;SDS011;65238;42.662;23.280;2023-05-02T03:30:16;7.78;;;5.65;;
76409;SDS011;65238;42.662;23.280;2023-05-02T03:32:41;7.00;;;5.13;;
76409;SDS011;65238;42.662;23.280;2023-05-02T03:35:07;7.20;;;5.53;;
76409;SDS011;65238;42.662;23.280;2023-05-02T03:37:33;6.38;;;5.38;;
76409;SDS011;65238;42.662;23.280;2023-05-02T03:39:59;6.25;;;5.45;;
76409;SDS011;65238;42.662;23.280;2023-05-02T03:42:24;8.73;;;5.32;;
76409;SDS011;65238;42.662;23.280;2023-05-02T03:44:53;7.95;;;5.82;;
76409;SDS011;65238;42.662;23.280;2023-05-02T03:47:18;7.28;;;5.28;;
76409;SDS011;65238;42.662;23.280;2023-05-02T03:49:44;8.63;;;5.10;;
76409;SDS011;65238;42.662;23.280;2023-05-02T03:52:10;6.60;;;5.53;;
76409;SDS011;65238;42.662;23.280;2023-05-02T03:54:36;8.40;;;5.90;;
76409;SDS011;65238;42.662;23.280;2023-05-02T03:57:01;7.70;;;5.95;;
76409;SDS011;65238;42.662;23.280;2023-05-02T03:59:30;7.82;;;5.20;;
76409;SDS011;65238;42.662;23.280;2023-05-02T04:01:56;9.35;;;6.78;;
76409;SDS011;65238;42.662;23.280;2023-05-02T04:04:23;10.05;;;6.20;;
76409;SDS011;65238;42.662;23.280;2023-05-02T04:06:48;7.95;;;5.88;;
76409;SDS011;65238;42.662;23.280;2023-05-02T04:09:13;8.48;;;5.65;;
76409;SDS011;65238;42.662;23.280;2023-05-02T04:11:39;8.25;;;5.80;;
76409;SDS011;65238;42.662;23.280;2023-05-02T04:14:05;8.93;;;5.93;;
76409;SDS011;65238;42.662;23.280;2023-05-02T04:16:31;10.50;;;5.43;;
76409;SDS011;65238;42.662;23.280;2023-05-02T04:18:56;6.45;;;5.20;;
76409;SDS011;65238;42.662;23.280;2023-05-02T04:21:22;7.88;;;5.10;;
76409;SDS011;65238;42.662;23.280;2023-05-02T04:23:47;10.60;;;5.57;;
76409;SDS011;65238;42.662;23.280;2023-05-02T04:26:13;8.32;;;5.60;;
76409;SDS011;65238;42.662;23.280;2023-05-02T04:28:38;6.75;;;5.05;;
76409;SDS011;65238;42.662;23.280;2023-05-02T04:31:04;7.05;;;5.50;;
76409;SDS011;65238;42.662;23.280;2023-05-02T04:33:29;8.82;;;5.75;;
76409;SDS011;65238;42.662;23.280;2023-05-02T04:35:55;8.25;;;6.10;;
76409;SDS011;65238;42.662;23.280;2023-05-02T04:38:21;10.38;;;6.97;;
76409;SDS011;65238;42.662;23.280;2023-05-02T04:40:46;10.27;;;5.88;;
76409;SDS011;65238;42.662;23.280;2023-05-02T04:43:14;6.07;;;5.30;;
76409;SDS011;65238;42.662;23.280;2023-05-02T04:45:40;7.72;;;5.05;;
76409;SDS011;65238;42.662;23.280;2023-05-02T04:48:05;6.53;;;5.10;;
76409;SDS011;65238;42.662;23.280;2023-05-02T04:50:30;10.80;;;5.38;;
76409;SDS011;65238;42.662;23.280;2023-05-02T04:52:56;8.93;;;5.43;;
76409;SDS011;65238;42.662;23.280;2023-05-02T04:55:22;8.80;;;5.25;;
76409;SDS011;65238;42.662;23.280;2023-05-02T04:57:47;9.15;;;4.97;;
76409;SDS011;65238;42.662;23.280;2023-05-02T05:00:13;8.60;;;5.45;;
76409;SDS011;65238;42.662;23.280;2023-05-02T05:02:38;5.70;;;4.80;;
76409;SDS011;65238;42.662;23.280;2023-05-02T05:05:04;7.22;;;4.75;;
76409;SDS011;65238;42.662;23.280;2023-05-02T05:07:30;7.80;;;5.05;;
76409;SDS011;65238;42.662;23.280;2023-05-02T05:09:55;10.05;;;4.75;;
76409;SDS011;65238;42.662;23.280;2023-05-02T05:12:21;7.85;;;4.68;;
76409;SDS011;65238;42.662;23.280;2023-05-02T05:14:46;8.13;;;4.45;;
76409;SDS011;65238;42.662;23.280;2023-05-02T05:17:12;12.57;;;4.97;;
76409;SDS011;65238;42.662;23.280;2023-05-02T05:19:37;6.95;;;4.88;;
76409;SDS011;65238;42.662;23.280;2023-05-02T05:22:03;7.93;;;5.00;;
76409;SDS011;65238;42.662;23.280;2023-05-02T05:24:28;9.88;;;4.85;;
76409;SDS011;65238;42.662;23.280;2023-05-02T05:26:53;8.65;;;4.57;;
76409;SDS011;65238;42.662;23.280;2023-05-02T05:29:19;7.78;;;4.32;;
76409;SDS011;65238;42.662;23.280;2023-05-02T05:31:44;7.45;;;4.68;;
76409;SDS011;65238;42.662;23.280;2023-05-02T05:34:10;11.70;;;4.90;;
76409;SDS011;65238;42.662;23.280;2023-05-02T05:36:35;7.72;;;5.18;;
76409;SDS011;65238;42.662;23.280;2023-05-02T05:39:02;6.45;;;4.95;;
76409;SDS011;65238;42.662;23.280;2023-05-02T05:41:28;6.65;;;4.28;;
76409;SDS011;65238;42.662;23.280;2023-05-02T05:43:54;7.05;;;5.43;;
76409;SDS011;65238;42.662;23.280;2023-05-02T05:46:20;7.47;;;4.80;;
76409;SDS011;65238;42.662;23.280;2023-05-02T05:48:45;5.40;;;4.15;;
76409;SDS011;65238;42.662;23.280;2023-05-02T05:51:11;7.53;;;4.65;;
76409;SDS011;65238;42.662;23.280;2023-05-02T05:53:36;10.70;;;4.55;;
76409;SDS011;65238;42.662;23.280;2023-05-02T05:56:11;8.45;;;4.43;;
76409;SDS011;65238;42.662;23.280;2023-05-02T05:58:37;5.60;;;4.65;;
76409;SDS011;65238;42.662;23.280;2023-05-02T06:01:03;5.25;;;4.20;;
76409;SDS011;65238;42.662;23.280;2023-05-02T06:03:28;8.57;;;4.38;;
76409;SDS011;65238;42.662;23.280;2023-05-02T06:05:54;9.02;;;4.97;;
76409;SDS011;65238;42.662;23.280;2023-05-02T06:08:20;10.77;;;4.65;;
76409;SDS011;65238;42.662;23.280;2023-05-02T06:10:45;8.32;;;4.70;;
76409;SDS011;65238;42.662;23.280;2023-05-02T06:13:11;5.25;;;4.35;;
76409;SDS011;65238;42.662;23.280;2023-05-02T06:15:36;6.90;;;4.22;;
76409;SDS011;65238;42.662;23.280;2023-05-02T06:18:02;6.50;;;4.57;;
76409;SDS011;65238;42.662;23.280;2023-05-02T06:20:27;5.95;;;4.10;;
76409;SDS011;65238;42.662;23.280;2023-05-02T06:22:52;5.90;;;4.40;;
76409;SDS011;65238;42.662;23.280;2023-05-02T06:25:18;9.98;;;4.47;;
76409;SDS011;65238;42.662;23.280;2023-05-02T06:27:43;6.82;;;4.60;;
76409;SDS011;65238;42.662;23.280;2023-05-02T06:30:09;7.95;;;3.45;;
76409;SDS011;65238;42.662;23.280;2023-05-02T06:32:34;6.40;;;3.75;;
76409;SDS011;65238;42.662;23.280;2023-05-02T06:35:00;5.95;;;3.58;;
76409;SDS011;65238;42.662;23.280;2023-05-02T06:37:25;4.72;;;3.72;;
76409;SDS011;65238;42.662;23.280;2023-05-02T06:39:51;6.00;;;4.00;;
76409;SDS011;65238;42.662;23.280;2023-05-02T06:42:16;7.60;;;4.03;;
76409;SDS011;65238;42.662;23.280;2023-05-02T06:44:42;8.10;;;3.60;;
76409;SDS011;65238;42.662;23.280;2023-05-02T06:47:07;6.30;;;4.30;;
76409;SDS011;65238;42.662;23.280;2023-05-02T06:49:33;6.22;;;3.70;;
76409;SDS011;65238;42.662;23.280;2023-05-02T06:51:58;8.25;;;3.67;;
76409;SDS011;65238;42.662;23.280;2023-05-02T06:54:23;5.22;;;3.58;;
76409;SDS011;65238;42.662;23.280;2023-05-02T06:56:49;10.30;;;3.58;;
76409;SDS011;65238;42.662;23.280;2023-05-02T06:59:15;5.80;;;3.67;;
76409;SDS011;65238;42.662;23.280;2023-05-02T07:01:43;5.75;;;3.28;;
76409;SDS011;65238;42.662;23.280;2023-05-02T07:04:12;3.92;;;3.40;;
76409;SDS011;65238;42.662;23.280;2023-05-02T07:06:37;7.10;;;3.55;;
76409;SDS011;65238;42.662;23.280;2023-05-02T07:09:02;3.70;;;2.97;;
76409;SDS011;65238;42.662;23.280;2023-05-02T07:11:28;7.82;;;3.50;;
76409;SDS011;65238;42.662;23.280;2023-05-02T07:13:53;8.65;;;3.38;;
76409;SDS011;65238;42.662;23.280;2023-05-02T07:16:19;8.15;;;3.67;;
76409;SDS011;65238;42.662;23.280;2023-05-02T07:18:44;9.23;;;3.28;;
76409;SDS011;65238;42.662;23.280;2023-05-02T07:21:10;6.13;;;3.45;;
76409;SDS011;65238;42.662;23.280;2023-05-02T07:23:36;4.38;;;3.28;;
76409;SDS011;65238;42.662;23.280;2023-05-02T07:26:01;7.68;;;3.10;;
76409;SDS011;65238;42.662;23.280;2023-05-02T07:28:27;5.82;;;3.15;;
76409;SDS011;65238;42.662;23.280;2023-05-02T07:30:52;4.93;;;3.13;;
76409;SDS011;65238;42.662;23.280;2023-05-02T07:33:17;6.32;;;3.13;;
76409;SDS011;65238;42.662;23.280;2023-05-02T07:35:43;4.80;;;2.92;;
76409;SDS011;65238;42.662;23.280;2023-05-02T07:38:09;5.25;;;3.38;;
76409;SDS011;65238;42.662;23.280;2023-05-02T07:40:34;4.47;;;2.75;;
76409;SDS011;65238;42.662;23.280;2023-05-02T07:43:00;9.05;;;3.10;;
76409;SDS011;65238;42.662;23.280;2023-05-02T07:45:25;7.07;;;3.58;;
76409;SDS011;65238;42.662;23.280;2023-05-02T07:47:51;8.05;;;3.40;;
76409;SDS011;65238;42.662;23.280;2023-05-02T07:50:16;5.60;;;3.13;;
76409;SDS011;65238;42.662;23.280;2023-05-02T07:52:42;5.60;;;3.00;;
76409;SDS011;65238;42.662;23.280;2023-05-02T07:55:07;7.00;;;3.13;;
76409;SDS011;65238;42.662;23.280;2023-05-02T07:57:33;6.90;;;3.05;;
76409;SDS011;65238;42.662;23.280;2023-05-02T07:59:58;4.78;;;2.75;;
76409;SDS011;65238;42.662;23.280;2023-05-02T08:02:24;5.57;;;2.63;;
76409;SDS011;65238;42.662;23.280;2023-05-02T08:04:50;8.68;;;2.85;;
76409;SDS011;65238;42.662;23.280;2023-05-02T08:07:15;7.95;;;3.03;;
76409;SDS011;65238;42.662;23.280;2023-05-02T08:09:41;6.70;;;3.05;;
76409;SDS011;65238;42.662;23.280;2023-05-02T08:12:06;3.15;;;2.58;;
76409;SDS011;65238;42.662;23.280;2023-05-02T08:14:32;5.53;;;3.38;;
76409;SDS011;65238;42.662;23.280;2023-05-02T08:16:58;4.50;;;3.00;;
76409;SDS011;65238;42.662;23.280;2023-05-02T08:19:23;5.13;;;2.63;;
76409;SDS011;65238;42.662;23.280;2023-05-02T08:21:49;4.32;;;2.67;;
76409;SDS011;65238;42.662;23.280;2023-05-02T08:24:14;6.35;;;2.67;;
76409;SDS011;65238;42.662;23.280;2023-05-02T08:26:40;4.63;;;2.80;;
76409;SDS011;65238;42.662;23.280;2023-05-02T08:29:05;5.28;;;3.08;;
76409;SDS011;65238;42.662;23.280;2023-05-02T08:31:31;7.85;;;3.20;;
76409;SDS011;65238;42.662;23.280;2023-05-02T08:33:57;6.03;;;2.50;;
76409;SDS011;65238;42.662;23.280;2023-05-02T08:36:23;3.83;;;2.78;;
76409;SDS011;65238;42.662;23.280;2023-05-02T08:38:48;9.43;;;2.45;;
76409;SDS011;65238;42.662;23.280;2023-05-02T08:41:14;5.00;;;3.08;;
76409;SDS011;65238;42.662;23.280;2023-05-02T08:43:41;3.92;;;2.63;;
76409;SDS011;65238;42.662;23.280;2023-05-02T08:46:09;5.72;;;2.72;;
76409;SDS011;65238;42.662;23.280;2023-05-02T08:48:36;5.28;;;3.22;;
76409;SDS011;65238;42.662;23.280;2023-05-02T08:51:02;3.75;;;3.10;;
76409;SDS011;65238;42.662;23.280;2023-05-02T08:53:33;8.95;;;3.28;;
76409;SDS011;65238;42.662;23.280;2023-05-02T08:55:59;5.35;;;2.72;;
76409;SDS011;65238;42.662;23.280;2023-05-02T08:58:25;2.95;;;2.58;;
76409;SDS011;65238;42.662;23.280;2023-05-02T09:00:50;6.78;;;2.70;;
76409;SDS011;65238;42.662;23.280;2023-05-02T09:03:25;6.35;;;2.55;;
76409;SDS011;65238;42.662;23.280;2023-05-02T09:05:59;4.18;;;2.50;;
76409;SDS011;65238;42.662;23.280;2023-05-02T09:08:29;4.00;;;2.47;;
76409;SDS011;65238;42.662;23.280;2023-05-02T09:10:54;4.63;;;2.80;;
76409;SDS011;65238;42.662;23.280;2023-05-02T09:13:30;4.75;;;2.50;;
76409;SDS011;65238;42.662;23.280;2023-05-02T09:16:19;4.85;;;2.40;;
76409;SDS011;65238;42.662;23.280;2023-05-02T09:18:47;4.90;;;2.50;;
76409;SDS011;65238;42.662;23.280;2023-05-02T09:23:41;6.50;;;2.75;;
76409;SDS011;65238;42.662;23.280;2023-05-02T09:26:24;4.25;;;2.75;;
76409;SDS011;65238;42.662;23.280;2023-05-02T09:29:03;5.47;;;2.33;;
76409;SDS011;65238;42.662;23.280;2023-05-02T09:31:30;8.23;;;3.00;;
76409;SDS011;65238;42.662;23.280;2023-05-02T09:34:20;4.55;;;2.40;;
76409;SDS011;65238;42.662;23.280;2023-05-02T09:36:47;5.15;;;2.50;;
76409;SDS011;65238;42.662;23.280;2023-05-02T09:39:24;3.50;;;2.20;;
76409;SDS011;65238;42.662;23.280;2023-05-02T09:41:56;3.40;;;2.33;;
76409;SDS011;65238;42.662;23.280;2023-05-02T09:44:22;3.47;;;2.28;;
76409;SDS011;65238;42.662;23.280;2023-05-02T09:46:51;3.67;;;2.60;;
76409;SDS011;65238;42.662;23.280;2023-05-02T09:49:18;4.85;;;2.88;;
76409;SDS011;65238;42.662;23.280;2023-05-02T09:51:44;2.45;;;2.13;;
76409;SDS011;65238;42.662;23.280;2023-05-02T09:54:11;3.17;;;2.20;;
76409;SDS011;65238;42.662;23.280;2023-05-02T09:59:20;2.67;;;2.13;;
76409;SDS011;65238;42.662;23.280;2023-05-02T10:01:45;11.05;;;2.50;;
76409;SDS011;65238;42.662;23.280;2023-05-02T10:04:19;4.13;;;2.85;;
76409;SDS011;65238;42.662;23.280;2023-05-02T10:06:45;2.97;;;2.35;;
76409;SDS011;65238;42.662;23.280;2023-05-02T10:09:11;4.78;;;2.42;;
76409;SDS011;65238;42.662;23.280;2023-05-02T10:11:39;3.15;;;2.30;;
76409;SDS011;65238;42.662;23.280;2023-05-02T10:14:07;3.70;;;2.22;;
76409;SDS011;65238;42.662;23.280;2023-05-02T10:16:33;1.88;;;1.75;;
76409;SDS011;65238;42.662;23.280;2023-05-02T10:21:33;5.00;;;2.70;;
76409;SDS011;65238;42.662;23.280;2023-05-02T10:23:59;6.20;;;2.40;;
76409;SDS011;65238;42.662;23.280;2023-05-02T10:26:26;3.42;;;2.22;;
76409;SDS011;65238;42.662;23.280;2023-05-02T10:28:52;4.47;;;2.30;;
76409;SDS011;65238;42.662;23.280;2023-05-02T10:31:18;7.45;;;2.42;;
76409;SDS011;65238;42.662;23.280;2023-05-02T10:33:43;4.65;;;2.35;;
76409;SDS011;65238;42.662;23.280;2023-05-02T10:36:11;8.75;;;2.33;;
76409;SDS011;65238;42.662;23.280;2023-05-02T10:38:41;5.63;;;2.05;;
76409;SDS011;65238;42.662;23.280;2023-05-02T10:41:08;7.57;;;2.50;;
76409;SDS011;65238;42.662;23.280;2023-05-02T10:43:36;6.63;;;2.28;;
76409;SDS011;65238;42.662;23.280;2023-05-02T10:46:03;7.40;;;2.40;;
76409;SDS011;65238;42.662;23.280;2023-05-02T10:49:07;3.25;;;1.80;;
76409;SDS011;65238;42.662;23.280;2023-05-02T10:51:35;5.70;;;1.75;;
76409;SDS011;65238;42.662;23.280;2023-05-02T10:54:20;3.75;;;2.05;;
76409;SDS011;65238;42.662;23.280;2023-05-02T10:59:33;7.78;;;2.30;;
76409;SDS011;65238;42.662;23.280;2023-05-02T11:01:58;2.75;;;1.88;;
76409;SDS011;65238;42.662;23.280;2023-05-02T11:04:25;3.42;;;1.83;;
76409;SDS011;65238;42.662;23.280;2023-05-02T11:11:53;2.92;;;2.00;;
76409;SDS011;65238;42.662;23.280;2023-05-02T11:19:31;9.38;;;2.10;;
76409;SDS011;65238;42.662;23.280;2023-05-02T11:24:48;2.25;;;1.88;;
76409;SDS011;65238;42.662;23.280;2023-05-02T11:35:18;3.58;;;1.90;;
76409;SDS011;65238;42.662;23.280;2023-05-02T11:37:54;7.30;;;2.10;;
76409;SDS011;65238;42.662;23.280;2023-05-02T11:40:24;2.83;;;1.80;;
76409;SDS011;65238;42.662;23.280;2023-05-02T11:42:51;3.60;;;1.63;;
76409;SDS011;65238;42.662;23.280;2023-05-02T11:45:16;7.47;;;2.70;;
76409;SDS011;65238;42.662;23.280;2023-05-02T11:47:42;6.05;;;2.28;;
76409;SDS011;65238;42.662;23.280;2023-05-02T11:50:10;2.45;;;1.88;;
76409;SDS011;65238;42.662;23.280;2023-05-02T11:52:36;8.50;;;2.10;;
76409;SDS011;65238;42.662;23.280;2023-05-02T11:55:06;8.27;;;2.28;;
76409;SDS011;65238;42.662;23.280;2023-05-02T11:57:35;5.15;;;2.10;;
76409;SDS011;65238;42.662;23.280;2023-05-02T12:00:01;2.45;;;1.92;;
76409;SDS011;65238;42.662;23.280;2023-05-02T12:02:40;5.10;;;2.00;;
76409;SDS011;65238;42.662;23.280;2023-05-02T12:05:07;3.47;;;1.98;;
76409;SDS011;65238;42.662;23.280;2023-05-02T12:07:38;3.08;;;2.05;;
76409;SDS011;65238;42.662;23.280;2023-05-02T12:10:06;3.95;;;1.90;;
76409;SDS011;65238;42.662;23.280;2023-05-02T12:12:34;3.80;;;2.20;;
76409;SDS011;65238;42.662;23.280;2023-05-02T12:15:03;3.28;;;1.98;;
76409;SDS011;65238;42.662;23.280;2023-05-02T12:17:30;8.35;;;2.47;;
76409;SDS011;65238;42.662;23.280;2023-05-02T12:19:56;5.55;;;2.05;;
76409;SDS011;65238;42.662;23.280;2023-05-02T12:22:22;6.20;;;2.05;;
76409;SDS011;65238;42.662;23.280;2023-05-02T12:24:48;5.72;;;1.90;;
76409;SDS011;65238;42.662;23.280;2023-05-02T12:27:15;3.08;;;2.10;;
76409;SDS011;65238;42.662;23.280;2023-05-02T12:29:41;7.55;;;2.00;;
76409;SDS011;65238;42.662;23.280;2023-05-02T12:32:09;6.95;;;2.25;;
76409;SDS011;65238;42.662;23.280;2023-05-02T12:34:35;2.72;;;1.98;;
76409;SDS011;65238;42.662;23.280;2023-05-02T12:37:02;3.13;;;2.03;;
76409;SDS011;65238;42.662;23.280;2023-05-02T12:44:36;3.90;;;2.83;;
76409;SDS011;65238;42.662;23.280;2023-05-02T12:47:05;3.30;;;1.98;;
76409;SDS011;65238;42.662;23.280;2023-05-02T12:49:32;2.50;;;1.90;;
76409;SDS011;65238;42.662;23.280;2023-05-02T12:51:57;3.63;;;2.10;;
76409;SDS011;65238;42.662;23.280;2023-05-02T12:54:23;4.15;;;2.00;;
76409;SDS011;65238;42.662;23.280;2023-05-02T12:56:50;5.93;;;2.03;;
76409;SDS011;65238;42.662;23.280;2023-05-02T12:59:29;5.97;;;2.38;;
76409;SDS011;65238;42.662;23.280;2023-05-02T13:01:55;3.92;;;2.10;;
76409;SDS011;65238;42.662;23.280;2023-05-02T13:04:21;3.45;;;2.05;;
76409;SDS011;65238;42.662;23.280;2023-05-02T13:07:00;5.15;;;1.90;;
76409;SDS011;65238;42.662;23.280;2023-05-02T13:09:26;2.80;;;1.88;;
76409;SDS011;65238;42.662;23.280;2023-05-02T13:11:51;3.03;;;1.90;;
76409;SDS011;65238;42.662;23.280;2023-05-02T13:14:18;2.75;;;2.08;;
76409;SDS011;65238;42.662;23.280;2023-05-02T13:16:43;2.10;;;1.50;;
76409;SDS011;65238;42.662;23.280;2023-05-02T13:19:09;2.70;;;1.60;;
76409;SDS011;65238;42.662;23.280;2023-05-02T13:21:34;3.05;;;2.08;;
76409;SDS011;65238;42.662;23.280;2023-05-02T13:24:00;4.03;;;1.77;;
76409;SDS011;65238;42.662;23.280;2023-05-02T13:26:28;7.63;;;2.00;;
76409;SDS011;65238;42.662;23.280;2023-05-02T13:28:53;5.75;;;1.90;;
76409;SDS011;65238;42.662;23.280;2023-05-02T13:31:20;6.25;;;2.63;;
76409;SDS011;65238;42.662;23.280;2023-05-02T13:33:45;4.03;;;1.80;;
76409;SDS011;65238;42.662;23.280;2023-05-02T13:36:11;6.95;;;2.30;;
76409;SDS011;65238;42.662;23.280;2023-05-02T13:38:36;3.58;;;1.70;;
76409;SDS011;65238;42.662;23.280;2023-05-02T13:41:01;2.90;;;2.05;;
76409;SDS011;65238;42.662;23.280;2023-05-02T13:43:27;4.00;;;2.00;;
76409;SDS011;65238;42.662;23.280;2023-05-02T13:45:52;6.13;;;1.90;;
76409;SDS011;65238;42.662;23.280;2023-05-02T13:48:18;3.72;;;1.67;;
76409;SDS011;65238;42.662;23.280;2023-05-02T13:50:43;3.25;;;1.98;;
76409;SDS011;65238;42.662;23.280;2023-05-02T13:53:09;4.70;;;2.22;;
76409;SDS011;65238;42.662;23.280;2023-05-02T13:55:35;9.60;;;2.35;;
76409;SDS011;65238;42.662;23.280;2023-05-02T13:58:00;12.57;;;2.35;;
76409;SDS011;65238;42.662;23.280;2023-05-02T14:00:26;8.07;;;1.77;;
76409;SDS011;65238;42.662;23.280;2023-05-02T14:02:53;7.88;;;2.00;;
76409;SDS011;65238;42.662;23.280;2023-05-02T14:05:18;3.53;;;1.50;;
76409;SDS011;65238;42.662;23.280;2023-05-02T14:07:44;3.05;;;1.40;;
76409;SDS011;65238;42.662;23.280;2023-05-02T14:10:10;3.92;;;1.85;;
76409;SDS011;65238;42.662;23.280;2023-05-02T14:12:35;4.20;;;2.03;;
76409;SDS011;65238;42.662;23.280;2023-05-02T14:15:01;3.95;;;1.67;;
76409;SDS011;65238;42.662;23.280;2023-05-02T14:17:26;3.58;;;1.88;;
76409;SDS011;65238;42.662;23.280;2023-05-02T14:19:52;4.57;;;1.65;;
76409;SDS011;65238;42.662;23.280;2023-05-02T14:22:17;4.15;;;1.77;;
76409;SDS011;65238;42.662;23.280;2023-05-02T14:24:43;6.28;;;2.13;;
76409;SDS011;65238;42.662;23.280;2023-05-02T14:27:08;2.50;;;1.80;;
76409;SDS011;65238;42.662;23.280;2023-05-02T14:29:42;2.80;;;1.70;;
76409;SDS011;65238;42.662;23.280;2023-05-02T14:32:11;5.32;;;2.00;;
76409;SDS011;65238;42.662;23.280;2023-05-02T14:34:37;7.45;;;2.33;;
76409;SDS011;65238;42.662;23.280;2023-05-02T14:37:02;6.57;;;1.75;;
76409;SDS011;65238;42.662;23.280;2023-05-02T14:39:28;4.10;;;1.88;;
76409;SDS011;65238;42.662;23.280;2023-05-02T14:41:53;3.65;;;2.28;;
76409;SDS011;65238;42.662;23.280;2023-05-02T14:44:19;5.10;;;1.75;;
76409;SDS011;65238;42.662;23.280;2023-05-02T14:46:44;2.55;;;1.90;;
76409;SDS011;65238;42.662;23.280;2023-05-02T14:49:10;4.53;;;2.10;;
76409;SDS011;65238;42.662;23.280;2023-05-02T14:51:36;3.47;;;1.70;;
76409;SDS011;65238;42.662;23.280;2023-05-02T14:54:03;3.53;;;1.50;;
76409;SDS011;65238;42.662;23.280;2023-05-02T14:56:29;2.88;;;1.58;;
76409;SDS011;65238;42.662;23.280;2023-05-02T14:58:54;3.50;;;1.67;;
76409;SDS011;65238;42.662;23.280;2023-05-02T15:01:20;3.42;;;1.65;;
76409;SDS011;65238;42.662;23.280;2023-05-02T15:03:46;5.20;;;1.75;;
76409;SDS011;65238;42.662;23.280;2023-05-02T15:06:13;2.67;;;1.50;;
76409;SDS011;65238;42.662;23.280;2023-05-02T15:08:39;5.72;;;1.50;;
76409;SDS011;65238;42.662;23.280;2023-05-02T15:11:05;2.75;;;1.75;;
76409;SDS011;65238;42.662;23.280;2023-05-02T15:13:31;2.60;;;1.58;;
76409;SDS011;65238;42.662;23.280;2023-05-02T15:15:56;7.28;;;1.45;;
76409;SDS011;65238;42.662;23.280;2023-05-02T15:18:21;6.07;;;1.50;;
76409;SDS011;65238;42.662;23.280;2023-05-02T15:20:47;3.15;;;1.63;;
76409;SDS011;65238;42.662;23.280;2023-05-02T15:23:12;3.53;;;1.60;;
76409;SDS011;65238;42.662;23.280;2023-05-02T15:25:38;7.72;;;2.10;;
76409;SDS011;65238;42.662;23.280;2023-05-02T15:28:03;5.38;;;1.95;;
76409;SDS011;65238;42.662;23.280;2023-05-02T15:30:29;2.92;;;1.40;;
76409;SDS011;65238;42.662;23.280;2023-05-02T15:32:54;4.32;;;1.83;;